Terminal Aerodrome Forecast
Issued by NWS Omaha/Valley, NE

Home | Current Version | Previous Version | Text Only | Print | Product List | Glossary On
Versions: 1 2 3 4 5 6 7 8 9 10 11 12 13 14 15 16 17 18 19 20 21 22 23 24 25 26 27 28 29 30 31 32 33 34
000
FTUS43 KOAX 030835 AAA
TAFOMA
TAF AMD
KOMA 030835Z 0309/0406 16010KT P6SM SCT100 WS020/22040KT
     FM031600 16013G22KT P6SM SCT250
     FM032300 16011KT P6SM SCT120=

USA.gov is the U.S. government's official web portal to all federal, state and local government web resources and services.